createdAt,value
2018-11-05T00:04:16.626Z,16.9
2018-11-05T00:05:06.527Z,16.9
2018-11-05T00:05:56.434Z,16.9
2018-11-05T00:06:46.402Z,16.9
2018-11-05T00:25:01.858Z,16.9
2018-11-05T00:25:51.179Z,16.9
2018-11-05T00:26:41.376Z,16.9
2018-11-05T00:27:31.271Z,16.9
2018-11-05T00:28:22.115Z,16.9
2018-11-05T00:29:12.581Z,16.9
2018-11-05T00:30:01.872Z,16.9
2018-11-05T00:30:52.376Z,16.9
2018-11-05T00:31:40.668Z,16.9
2018-11-05T00:32:32.001Z,16.9
2018-11-05T00:33:21.235Z,16.9
2018-11-05T00:34:11.594Z,16.9
2018-11-05T00:35:01.470Z,16.9
2018-11-05T00:35:51.662Z,16.9
2018-11-05T00:36:41.583Z,16.9
2018-11-05T00:37:31.621Z,16.9
2018-11-05T00:38:20.744Z,16.9
2018-11-05T00:39:11.738Z,16.9
2018-11-05T00:40:02.767Z,16.9
2018-11-05T00:40:52.845Z,16.9
2018-11-05T00:41:41.873Z,16.9
2018-11-05T00:42:32.348Z,16.9
2018-11-05T00:43:22.419Z,16.9
2018-11-05T00:44:11.002Z,16.9
2018-11-05T00:45:03.370Z,16.9
2018-11-05T00:45:55.388Z,16.9
2018-11-05T00:46:42.800Z,16.9
2018-11-05T00:47:33.132Z,16.9
2018-11-05T00:48:22.737Z,16.9
2018-11-05T00:49:12.541Z,16.9
2018-11-05T00:50:03.696Z,16.9
2018-11-05T00:50:52.999Z,16.9
2018-11-05T00:51:44.919Z,16.9
2018-11-05T00:52:33.922Z,16.8
2018-11-05T00:53:22.461Z,16.8
2018-11-05T00:54:13.912Z,16.9
2018-11-05T00:55:03.576Z,16.8
2018-11-05T00:55:53.331Z,16.8
2018-11-05T00:56:43.914Z,16.8
2018-11-05T00:57:35.009Z,16.8
2018-11-05T00:58:23.891Z,16.8
2018-11-05T00:59:13.369Z,16.9
2018-11-05T01:00:04.114Z,16.8
2018-11-05T01:00:54.409Z,16.8
2018-11-05T01:01:45.163Z,16.8
2018-11-05T01:02:34.693Z,16.8
2018-11-05T01:03:23.776Z,16.8
2018-11-05T01:04:14.156Z,16.8
2018-11-05T01:05:05.191Z,16.8
2018-11-05T01:05:53.968Z,16.8
2018-11-05T01:06:44.629Z,16.8
2018-11-05T01:07:34.421Z,16.8
2018-11-05T01:08:24.998Z,16.8
2018-11-05T01:09:14.945Z,16.8
2018-11-05T01:10:20.071Z,16.8
2018-11-05T01:10:55.421Z,16.8
2018-11-05T01:11:45.804Z,16.8
2018-11-05T01:12:34.934Z,16.8
2018-11-05T01:13:25.345Z,16.8
2018-11-05T01:14:15.151Z,16.8
2018-11-05T01:15:05.577Z,16.8
2018-11-05T01:15:55.571Z,16.8
2018-11-05T01:16:45.960Z,16.8
2018-11-05T01:17:34.778Z,16.8
2018-11-05T01:18:26.698Z,16.8
2018-11-05T01:19:16.691Z,16.8
2018-11-05T01:20:06.129Z,16.8
2018-11-05T01:20:55.238Z,16.8
2018-11-05T01:21:46.338Z,16.8
2018-11-05T01:22:36.446Z,16.8
2018-11-05T01:23:26.779Z,16.8
2018-11-05T01:24:15.863Z,16.8
2018-11-05T01:25:05.320Z,16.8
2018-11-05T01:25:56.733Z,16.8
2018-11-05T01:26:46.100Z,16.8
2018-11-05T01:27:35.518Z,16.8
2018-11-05T01:28:26.285Z,16.8
2018-11-05T01:29:16.119Z,16.8
2018-11-05T01:30:06.215Z,16.8
2018-11-05T01:30:57.223Z,16.8
2018-11-05T01:31:46.298Z,16.8
2018-11-05T01:32:36.517Z,16.8
2018-11-05T01:33:26.350Z,16.8
2018-11-05T01:34:16.537Z,16.8
2018-11-05T01:35:05.777Z,16.8
2018-11-05T01:35:57.782Z,16.8
2018-11-05T01:36:46.847Z,16.8
2018-11-05T01:37:36.401Z,16.8
2018-11-05T01:38:27.152Z,16.8
2018-11-05T01:39:16.669Z,16.7
2018-11-05T01:40:06.839Z,16.8
2018-11-05T01:40:57.052Z,16.7
2018-11-05T01:41:47.419Z,16.8
2018-11-05T01:42:36.748Z,16.7
2018-11-05T01:43:27.036Z,16.8
2018-11-05T01:44:17.378Z,16.7
2018-11-05T01:45:06.504Z,16.8
2018-11-05T01:45:57.991Z,16.7
2018-11-05T01:46:47.611Z,16.8
2018-11-05T01:47:37.456Z,16.7
2018-11-05T01:48:27.081Z,16.8
2018-11-05T01:49:18.006Z,16.7
2018-11-05T01:50:07.408Z,16.7
2018-11-05T01:50:57.614Z,16.7
2018-11-05T01:51:48.711Z,16.7
2018-11-05T01:52:38.658Z,16.7
2018-11-05T01:53:28.333Z,16.7
2018-11-05T01:54:18.098Z,16.7
2018-11-05T01:55:07.420Z,16.7
2018-11-05T01:55:57.881Z,16.7
2018-11-05T01:56:49.135Z,16.7
2018-11-05T01:57:37.820Z,16.7
2018-11-05T01:58:29.788Z,16.7
2018-11-05T01:59:18.335Z,16.7
2018-11-05T02:00:09.070Z,16.7
2018-11-05T02:00:58.925Z,16.7
2018-11-05T02:01:49.472Z,16.7
2018-11-05T02:02:38.827Z,16.7
2018-11-05T02:03:28.464Z,16.7
2018-11-05T02:04:19.411Z,16.7
2018-11-05T02:05:08.425Z,16.7
2018-11-05T02:05:59.722Z,16.7
2018-11-05T02:06:49.339Z,16.6
2018-11-05T02:07:39.583Z,16.7
2018-11-05T02:08:28.567Z,16.7
2018-11-05T02:09:18.154Z,16.6
2018-11-05T02:10:09.469Z,16.7
2018-11-05T02:10:58.692Z,16.6
2018-11-05T02:11:50.477Z,16.6
2018-11-05T02:12:40.779Z,16.6
2018-11-05T02:13:31.503Z,16.6
2018-11-05T02:14:19.781Z,16.6
2018-11-05T02:15:09.709Z,16.6
2018-11-05T02:16:01.117Z,16.6
2018-11-05T02:16:50.282Z,16.6
2018-11-05T02:17:39.665Z,16.6
2018-11-05T02:18:29.624Z,16.6
2018-11-05T02:19:20.303Z,16.6
2018-11-05T02:20:10.386Z,16.6
2018-11-05T02:20:59.818Z,16.6
2018-11-05T02:21:49.453Z,16.6
2018-11-05T02:22:40.719Z,16.6
2018-11-05T02:23:30.421Z,16.6
2018-11-05T02:24:21.104Z,16.6
2018-11-05T02:25:09.948Z,16.6
2018-11-05T02:25:59.286Z,16.6
2018-11-05T02:26:52.154Z,16.6
2018-11-05T02:27:37.732Z,16.6
2018-11-05T02:28:29.888Z,16.6
2018-11-05T02:29:20.103Z,16.6
2018-11-05T02:30:10.238Z,16.6
2018-11-05T02:31:01.473Z,16.6
2018-11-05T02:31:51.231Z,16.6
2018-11-05T02:32:41.211Z,16.6
2018-11-05T02:33:30.230Z,16.6
2018-11-05T02:34:21.804Z,16.6
2018-11-05T02:35:10.183Z,16.6
2018-11-05T02:36:00.305Z,16.6
2018-11-05T02:36:51.900Z,16.6
2018-11-05T02:37:41.500Z,16.6
2018-11-05T02:38:31.340Z,16.6
2018-11-05T02:39:21.265Z,16.6
2018-11-05T02:40:11.771Z,16.6
2018-11-05T02:41:02.195Z,16.6
2018-11-05T02:41:51.263Z,16.6
2018-11-05T02:42:41.432Z,16.6
2018-11-05T02:43:32.197Z,16.6
2018-11-05T02:44:22.111Z,16.6
2018-11-05T02:45:11.545Z,16.6
2018-11-05T02:46:02.527Z,16.6
2018-11-05T02:46:51.680Z,16.6
2018-11-05T02:47:42.375Z,16.6
2018-11-05T02:48:31.913Z,16.6
2018-11-05T02:49:22.467Z,16.6
2018-11-05T02:50:12.252Z,16.6
2018-11-05T02:51:01.365Z,16.6
2018-11-05T02:51:51.579Z,16.6
2018-11-05T02:52:41.842Z,16.6
2018-11-05T02:53:33.917Z,16.6
2018-11-05T02:54:22.255Z,16.6
2018-11-05T02:55:11.854Z,16.6
2018-11-05T02:56:01.802Z,16.6
2018-11-05T02:56:52.556Z,16.6
2018-11-05T02:57:43.059Z,16.6
2018-11-05T02:58:32.822Z,16.6
2018-11-05T02:59:22.681Z,16.6
2018-11-05T03:00:12.245Z,16.6
2018-11-05T03:01:03.896Z,16.5
2018-11-05T03:01:52.169Z,16.6
2018-11-05T03:02:42.384Z,16.6
2018-11-05T03:03:34.441Z,16.6
2018-11-05T03:04:22.164Z,16.5
2018-11-05T03:05:13.584Z,16.6
2018-11-05T03:06:03.302Z,16.6
2018-11-05T03:06:53.321Z,16.5
2018-11-05T03:07:43.231Z,16.5
2018-11-05T03:08:33.214Z,16.5
2018-11-05T03:09:24.445Z,16.5
2018-11-05T03:10:13.509Z,16.5
2018-11-05T03:11:03.314Z,16.5
2018-11-05T03:11:54.173Z,16.5
2018-11-05T03:12:43.770Z,16.5
2018-11-05T03:13:34.151Z,16.5
2018-11-05T03:14:24.329Z,16.5
2018-11-05T03:15:14.189Z,16.5
2018-11-05T03:16:03.521Z,16.5
2018-11-05T03:16:54.110Z,16.5
2018-11-05T03:17:44.775Z,16.5
2018-11-05T03:18:35.561Z,16.5
2018-11-05T03:19:24.196Z,16.5
2018-11-05T03:20:13.788Z,16.5
2018-11-05T03:21:05.201Z,16.5
2018-11-05T03:21:55.127Z,16.5
2018-11-05T03:22:44.637Z,16.5
2018-11-05T03:23:35.686Z,16.5
2018-11-05T03:24:25.424Z,16.5
2018-11-05T03:25:14.680Z,16.5
2018-11-05T03:26:05.743Z,16.5
2018-11-05T03:26:54.890Z,16.5
2018-11-05T03:27:45.757Z,16.5
2018-11-05T03:28:36.407Z,16.5
2018-11-05T03:29:25.380Z,16.5
2018-11-05T03:30:16.440Z,16.4
2018-11-05T03:31:05.764Z,16.4
2018-11-05T03:31:54.856Z,16.5
2018-11-05T03:32:46.033Z,16.4
2018-11-05T03:33:35.848Z,16.4
2018-11-05T03:34:24.288Z,16.5
2018-11-05T03:35:15.817Z,16.4
2018-11-05T03:36:08.005Z,16.4
2018-11-05T03:36:56.987Z,16.4
2018-11-05T03:37:46.539Z,16.4
2018-11-05T03:38:36.333Z,16.4
2018-11-05T03:39:25.612Z,16.4
2018-11-05T03:40:16.985Z,16.4
2018-11-05T03:41:05.537Z,16.4
2018-11-05T03:41:55.900Z,16.4
2018-11-05T03:42:45.697Z,16.4
2018-11-05T03:43:36.167Z,16.4
2018-11-05T03:44:26.069Z,16.4
2018-11-05T03:45:16.420Z,16.4
2018-11-05T03:46:07.082Z,16.4
2018-11-05T03:46:57.299Z,16.4
2018-11-05T03:47:45.464Z,16.4
2018-11-05T03:48:36.725Z,16.4
2018-11-05T03:49:26.630Z,16.4
2018-11-05T03:50:16.918Z,16.4
2018-11-05T03:51:06.353Z,16.4
2018-11-05T03:51:56.730Z,16.4
2018-11-05T03:52:46.743Z,16.4
2018-11-05T03:53:36.387Z,16.4
2018-11-05T03:54:26.811Z,16.4
2018-11-05T03:55:16.957Z,16.4
2018-11-05T03:56:09.644Z,16.4
2018-11-05T03:56:57.611Z,16.4
2018-11-05T03:57:48.027Z,16.4
2018-11-05T03:58:36.350Z,16.4
2018-11-05T03:59:27.494Z,16.4
2018-11-05T04:00:18.719Z,16.4
2018-11-05T04:01:07.656Z,16.4
2018-11-05T04:01:57.421Z,16.4
2018-11-05T04:02:47.568Z,16.4
2018-11-05T04:03:38.272Z,16.4
2018-11-05T04:04:28.653Z,16.4
2018-11-05T04:05:18.444Z,16.4
2018-11-05T04:06:08.976Z,16.4
2018-11-05T04:06:58.504Z,16.4
2018-11-05T04:07:47.644Z,16.4
2018-11-05T04:08:38.316Z,16.4
2018-11-05T04:09:26.905Z,16.4
2018-11-05T04:10:16.358Z,16.4
2018-11-05T04:11:08.858Z,16.4
2018-11-05T04:11:58.240Z,16.4
2018-11-05T04:12:49.266Z,16.4
2018-11-05T04:13:38.433Z,16.4
2018-11-05T04:14:27.844Z,16.4
2018-11-05T04:15:20.491Z,16.4
2018-11-05T04:16:11.281Z,16.4
2018-11-05T04:16:58.905Z,16.4
2018-11-05T04:17:48.623Z,16.4
2018-11-05T04:18:36.997Z,16.4
2018-11-05T04:19:27.952Z,16.4
2018-11-05T04:20:19.049Z,16.4
2018-11-05T04:21:08.745Z,16.4
2018-11-05T04:21:59.197Z,16.4
2018-11-05T04:22:50.072Z,16.4
2018-11-05T04:23:39.367Z,16.4
2018-11-05T04:24:29.266Z,16.4
2018-11-05T04:25:19.155Z,16.4
2018-11-05T04:26:08.875Z,16.4
2018-11-05T04:26:58.439Z,16.4
2018-11-05T04:27:50.988Z,16.4
2018-11-05T04:28:39.681Z,16.4
2018-11-05T04:29:30.088Z,16.3
2018-11-05T04:30:18.355Z,16.4
2018-11-05T04:31:09.667Z,16.3
2018-11-05T04:31:58.494Z,16.4
2018-11-05T04:32:49.517Z,16.3
2018-11-05T04:33:40.152Z,16.4
2018-11-05T04:34:29.899Z,16.3
2018-11-05T04:35:19.661Z,16.4
2018-11-05T04:36:08.794Z,16.3
2018-11-05T04:54:13.433Z,16.3
2018-11-05T04:55:03.013Z,16.3
2018-11-05T04:55:52.598Z,16.3
2018-11-05T04:56:42.441Z,16.3
2018-11-05T04:57:32.651Z,16.3
2018-11-05T04:58:23.213Z,16.3
2018-11-05T04:59:13.985Z,16.3
2018-11-05T05:00:03.128Z,16.3
2018-11-05T05:00:53.126Z,16.3
2018-11-05T05:01:42.917Z,16.3
2018-11-05T05:02:32.959Z,16.3
2018-11-05T05:03:24.502Z,16.3
2018-11-05T05:04:13.610Z,16.3
2018-11-05T05:05:03.471Z,16.3
2018-11-05T05:05:53.180Z,16.3
2018-11-05T05:06:43.160Z,16.3
2018-11-05T05:07:32.806Z,16.3
2018-11-05T05:08:23.208Z,16.3
2018-11-05T05:09:13.453Z,16.3
2018-11-05T05:10:04.158Z,16.3
2018-11-05T05:10:52.182Z,16.3
2018-11-05T05:11:44.053Z,16.3
2018-11-05T05:12:34.322Z,16.3
2018-11-05T05:13:25.154Z,16.3
2018-11-05T05:14:14.633Z,16.2
2018-11-05T05:15:04.682Z,16.2
2018-11-05T05:15:55.190Z,16.3
2018-11-05T05:16:45.556Z,16.2
2018-11-05T05:17:35.184Z,16.2
2018-11-05T05:18:25.404Z,16.2
2018-11-05T05:19:15.612Z,16.3
2018-11-05T05:20:05.277Z,16.2
2018-11-05T05:20:56.112Z,16.2
2018-11-05T05:21:45.104Z,16.2
2018-11-05T05:22:37.508Z,16.2
2018-11-05T05:23:24.863Z,16.2
2018-11-05T05:24:15.651Z,16.2
2018-11-05T05:25:06.242Z,16.2
2018-11-05T05:25:55.121Z,16.2
2018-11-05T05:26:46.054Z,16.2
2018-11-05T05:27:35.436Z,16.2
2018-11-05T05:28:24.830Z,16.2
2018-11-05T05:29:16.069Z,16.2
2018-11-05T05:30:05.146Z,16.2
2018-11-05T05:30:55.906Z,16.2
2018-11-05T05:31:45.406Z,16.2
2018-11-05T05:32:36.225Z,16.2
2018-11-05T05:33:25.270Z,16.2
2018-11-05T05:34:15.738Z,16.2
2018-11-05T05:35:06.206Z,16.2
2018-11-05T05:35:55.371Z,16.1
2018-11-05T05:36:46.085Z,16.1
2018-11-05T05:37:34.773Z,16.1
2018-11-05T05:38:26.343Z,16.2
2018-11-05T05:39:16.742Z,16.2
2018-11-05T05:40:06.070Z,16.1
2018-11-05T05:40:57.839Z,16.1
2018-11-05T05:41:46.057Z,16.1
2018-11-05T05:42:36.672Z,16.1
2018-11-05T05:43:26.662Z,16.1
2018-11-05T05:44:16.935Z,16.1
2018-11-05T05:45:06.899Z,16.1
2018-11-05T05:45:56.059Z,16.1
2018-11-05T05:46:45.795Z,16.1
2018-11-05T05:47:36.333Z,16.1
2018-11-05T05:48:27.293Z,16.1
2018-11-05T05:49:16.567Z,16.1
2018-11-05T05:50:09.206Z,16.1
2018-11-05T05:50:56.462Z,16.1
2018-11-05T05:51:46.827Z,16.1
2018-11-05T05:52:37.289Z,16.1
2018-11-05T05:53:27.240Z,16.1
2018-11-05T05:54:16.632Z,16.1
2018-11-05T05:55:07.487Z,16.1
2018-11-05T05:55:57.391Z,16.1
2018-11-05T05:56:46.295Z,16.1
2018-11-05T05:57:37.261Z,16.1
2018-11-05T05:58:27.208Z,16.1
2018-11-05T05:59:16.016Z,16.1
2018-11-05T06:00:10.361Z,16.1
2018-11-05T06:00:56.406Z,16.1
2018-11-05T06:01:47.274Z,16.1
2018-11-05T06:02:36.822Z,16.1
2018-11-05T06:03:26.906Z,16.1
2018-11-05T06:04:17.414Z,16.1
2018-11-05T06:05:07.769Z,16.1
2018-11-05T06:05:58.704Z,16.1
2018-11-05T06:06:48.808Z,16.1
2018-11-05T06:07:38.266Z,16.1
2018-11-05T06:08:26.669Z,16.1
2018-11-05T06:09:17.880Z,16.1
2018-11-05T06:10:08.203Z,16.1
2018-11-05T06:10:57.660Z,16.1
2018-11-05T06:11:47.045Z,16.1
2018-11-05T06:12:38.936Z,16.1
2018-11-05T06:13:27.921Z,16.1
2018-11-05T06:14:18.560Z,16.1
2018-11-05T06:15:08.573Z,16.1
2018-11-05T06:16:01.094Z,16.1
2018-11-05T06:16:47.814Z,16.1
2018-11-05T06:17:39.224Z,16.1
2018-11-05T06:18:28.491Z,16.1
2018-11-05T06:19:18.808Z,16.1
2018-11-05T06:20:08.006Z,16.1
2018-11-05T06:20:58.855Z,16.1
2018-11-05T06:21:51.782Z,16.1
2018-11-05T06:22:39.023Z,16.1
2018-11-05T06:23:29.055Z,16.1
2018-11-05T06:24:18.363Z,16.1
2018-11-05T06:25:08.968Z,16.1
2018-11-05T06:26:00.510Z,16.1
2018-11-05T06:26:48.181Z,16
2018-11-05T06:27:39.915Z,16.1
2018-11-05T06:28:31.622Z,16.1
2018-11-05T06:29:19.503Z,16.1
2018-11-05T06:30:10.352Z,16
2018-11-05T06:31:01.009Z,16.1
2018-11-05T06:31:50.391Z,16
2018-11-05T06:32:42.210Z,16.1
2018-11-05T06:33:30.924Z,16.1
2018-11-05T06:34:20.080Z,16.1
2018-11-05T06:35:10.520Z,16.1
2018-11-05T06:36:00.407Z,16.1
2018-11-05T06:36:50.959Z,16.1
2018-11-05T06:37:40.989Z,16
2018-11-05T06:38:29.883Z,16.1
2018-11-05T06:39:20.804Z,16.1
2018-11-05T06:40:09.814Z,16
2018-11-05T06:41:01.999Z,16.1
2018-11-05T06:41:52.648Z,16
2018-11-05T06:42:40.390Z,16.1
2018-11-05T06:43:31.797Z,16
2018-11-05T06:44:23.532Z,16
2018-11-05T06:45:11.184Z,16
2018-11-05T06:46:01.689Z,16
2018-11-05T06:46:51.139Z,16
2018-11-05T06:47:40.869Z,16
2018-11-05T06:48:31.874Z,16
2018-11-05T06:49:20.821Z,16
2018-11-05T06:50:10.679Z,16
2018-11-05T06:51:02.196Z,16
2018-11-05T06:51:50.921Z,16
2018-11-05T06:52:41.782Z,16
2018-11-05T06:53:31.176Z,16
2018-11-05T06:54:21.305Z,16
2018-11-05T06:55:11.248Z,16
2018-11-05T06:56:02.921Z,16
2018-11-05T06:56:51.161Z,16
2018-11-05T06:57:43.692Z,16
2018-11-05T06:58:32.655Z,16
2018-11-05T06:59:21.731Z,16
2018-11-05T07:00:11.566Z,16
2018-11-05T07:01:02.376Z,16
2018-11-05T07:01:51.994Z,16
2018-11-05T07:02:41.478Z,16
2018-11-05T07:03:31.449Z,16
2018-11-05T07:04:22.026Z,16
2018-11-05T07:05:11.099Z,16
2018-11-05T07:06:04.985Z,16
2018-11-05T07:06:51.704Z,16
2018-11-05T07:07:42.194Z,16
2018-11-05T07:08:31.694Z,16
2018-11-05T07:09:21.502Z,16
2018-11-05T07:10:12.579Z,16
2018-11-05T07:11:01.515Z,16
2018-11-05T07:11:51.976Z,16
2018-11-05T07:12:43.228Z,16
2018-11-05T07:13:33.384Z,16
2018-11-05T07:14:22.259Z,16
2018-11-05T07:15:12.925Z,16
2018-11-05T07:16:01.904Z,16
2018-11-05T07:16:53.196Z,16
2018-11-05T07:17:43.743Z,16
2018-11-05T07:18:36.059Z,16
2018-11-05T07:19:24.786Z,16
2018-11-05T07:20:12.364Z,16
2018-11-05T07:21:02.541Z,16
2018-11-05T07:21:51.093Z,16
2018-11-05T07:22:43.582Z,16
2018-11-05T07:23:33.870Z,16
2018-11-05T07:24:23.100Z,16
2018-11-05T07:25:12.806Z,15.9
2018-11-05T07:26:02.300Z,16
2018-11-05T07:26:53.178Z,16
2018-11-05T07:27:45.727Z,16
2018-11-05T07:28:33.891Z,16
2018-11-05T07:29:23.771Z,16
2018-11-05T07:30:14.061Z,16
2018-11-05T07:31:03.702Z,16
2018-11-05T07:31:53.353Z,16
2018-11-05T07:32:43.728Z,16
2018-11-05T07:33:37.777Z,16
2018-11-05T07:34:26.934Z,16
2018-11-05T07:35:13.251Z,16
2018-11-05T07:36:03.915Z,16
2018-11-05T07:36:54.153Z,16
2018-11-05T07:37:44.426Z,16
2018-11-05T07:38:34.652Z,16
2018-11-05T07:39:24.404Z,16
2018-11-05T07:40:14.290Z,16
2018-11-05T07:41:03.975Z,16
2018-11-05T07:41:53.755Z,16
2018-11-05T07:42:45.125Z,15.9
2018-11-05T07:43:35.878Z,16
2018-11-05T07:44:25.257Z,16
2018-11-05T07:45:15.304Z,16
2018-11-05T07:46:05.647Z,16
2018-11-05T07:46:54.159Z,16
2018-11-05T07:47:45.067Z,16
2018-11-05T07:48:34.949Z,16
2018-11-05T07:49:25.319Z,16
2018-11-05T07:50:17.711Z,16
2018-11-05T07:51:06.492Z,16
2018-11-05T07:51:55.199Z,16
2018-11-05T07:52:46.014Z,16
2018-11-05T07:53:34.902Z,16
2018-11-05T07:54:26.259Z,16
2018-11-05T07:55:14.874Z,16
2018-11-05T07:56:06.219Z,16
2018-11-05T07:56:59.176Z,16
2018-11-05T07:57:46.106Z,16
2018-11-05T07:58:36.777Z,15.9
2018-11-05T07:59:25.734Z,16
2018-11-05T08:00:17.512Z,16
2018-11-05T08:01:06.731Z,16
2018-11-05T08:01:56.151Z,15.9
2018-11-05T08:02:47.661Z,16
2018-11-05T08:03:35.416Z,16
2018-11-05T08:04:28.081Z,16
2018-11-05T08:05:16.909Z,16
2018-11-05T08:06:06.616Z,16
2018-11-05T08:06:56.954Z,16
2018-11-05T08:07:47.880Z,16
2018-11-05T08:08:39.471Z,16
2018-11-05T08:09:27.821Z,16
2018-11-05T08:10:17.285Z,16
2018-11-05T08:11:07.391Z,16
2018-11-05T08:11:57.375Z,16
2018-11-05T08:12:47.842Z,16
2018-11-05T08:13:36.158Z,16
2018-11-05T08:14:29.701Z,16
2018-11-05T08:15:16.911Z,16
2018-11-05T08:16:07.202Z,16
2018-11-05T08:16:57.185Z,16
2018-11-05T08:17:46.789Z,16
2018-11-05T08:18:37.122Z,16
2018-11-05T08:19:28.348Z,16
2018-11-05T08:20:17.787Z,16
2018-11-05T08:21:07.991Z,16
2018-11-05T08:21:58.485Z,16
2018-11-05T08:22:47.085Z,16
2018-11-05T08:23:38.587Z,16
2018-11-05T08:24:27.191Z,16
2018-11-05T08:25:18.164Z,16
2018-11-05T08:26:09.113Z,16
2018-11-05T08:26:59.117Z,16
2018-11-05T08:27:49.187Z,16
2018-11-05T08:28:38.372Z,16
2018-11-05T08:29:28.119Z,16
2018-11-05T08:30:17.601Z,16
2018-11-05T08:31:07.846Z,16
2018-11-05T08:31:59.504Z,16
2018-11-05T08:32:49.348Z,16
2018-11-05T08:33:38.332Z,16
2018-11-05T08:34:29.697Z,16
2018-11-05T08:35:18.176Z,16
2018-11-05T08:36:09.112Z,16
2018-11-05T08:36:59.556Z,16
2018-11-05T08:37:49.258Z,16
2018-11-05T08:38:39.126Z,16
2018-11-05T08:39:30.147Z,16
2018-11-05T08:40:21.947Z,16
2018-11-05T08:41:09.663Z,16
2018-11-05T08:41:59.180Z,16
2018-11-05T08:42:49.659Z,16
2018-11-05T08:43:39.104Z,16
2018-11-05T08:44:29.133Z,16
2018-11-05T08:45:20.298Z,16
2018-11-05T08:46:09.436Z,16
2018-11-05T08:47:02.569Z,16
2018-11-05T08:47:49.196Z,16
2018-11-05T08:48:39.273Z,16
2018-11-05T08:49:30.451Z,16
2018-11-05T08:50:23.410Z,16
2018-11-05T08:51:18.161Z,16
2018-11-05T08:51:59.781Z,16
2018-11-05T09:08:42.849Z,16
2018-11-05T09:09:33.307Z,16.1
2018-11-05T09:10:26.739Z,16.1
2018-11-05T09:11:17.162Z,16.1
2018-11-05T09:12:04.024Z,16.1
2018-11-05T09:12:53.995Z,16.1
2018-11-05T09:13:44.707Z,16
2018-11-05T09:14:33.520Z,16.1
2018-11-05T09:15:24.662Z,16.1
2018-11-05T09:16:16.062Z,16.1
2018-11-05T09:17:04.202Z,16.1
2018-11-05T09:17:53.854Z,16.1
2018-11-05T09:18:44.331Z,16.1
2018-11-05T09:19:33.440Z,16.1
2018-11-05T09:20:24.530Z,16.1
2018-11-05T09:21:14.132Z,16.1
2018-11-05T09:22:04.922Z,16.1
2018-11-05T09:22:54.424Z,16.1
2018-11-05T09:23:44.959Z,16.1
2018-11-05T09:24:34.624Z,16.1
2018-11-05T09:25:25.014Z,16.1
2018-11-05T09:26:13.814Z,16.1
2018-11-05T09:27:04.436Z,16.1
2018-11-05T09:27:56.376Z,16.1
2018-11-05T09:28:45.372Z,16.1
2018-11-05T09:29:34.909Z,16.1
2018-11-05T09:30:25.729Z,16.1
2018-11-05T09:31:15.421Z,16.1
2018-11-05T09:32:05.137Z,16.1
2018-11-05T09:32:54.661Z,16.1
2018-11-05T09:33:44.035Z,16.1
2018-11-05T09:34:35.246Z,16.1
2018-11-05T09:35:25.293Z,16.1
2018-11-05T09:36:15.679Z,16.1
2018-11-05T09:37:05.192Z,16.1
2018-11-05T09:37:55.232Z,16.1
2018-11-05T09:38:46.151Z,16.1
2018-11-05T09:39:34.515Z,16.1
2018-11-05T09:40:25.181Z,16.1
2018-11-05T09:41:15.113Z,16.1
2018-11-05T09:42:06.835Z,16.1
2018-11-05T09:42:59.068Z,16.1
2018-11-05T09:43:45.198Z,16.1
2018-11-05T09:44:35.791Z,16.1
2018-11-05T09:45:26.230Z,16.1
2018-11-05T09:46:16.103Z,16.1
2018-11-05T09:47:06.013Z,16.1
2018-11-05T09:47:57.003Z,16.1
2018-11-05T09:48:46.122Z,16.1
2018-11-05T09:49:38.365Z,16.1
2018-11-05T09:50:27.602Z,16.1
2018-11-05T09:51:17.255Z,16.1
2018-11-05T09:52:06.385Z,16.1
2018-11-05T09:52:56.977Z,16.1
2018-11-05T09:53:46.785Z,16.1
2018-11-05T09:54:37.472Z,16.1
2018-11-05T09:55:27.556Z,16.1
2018-11-05T09:56:18.175Z,16.1
2018-11-05T09:57:07.762Z,16.1
2018-11-05T09:57:56.570Z,16.1
2018-11-05T09:58:48.102Z,16.1
2018-11-05T09:59:38.067Z,16.1
2018-11-05T10:00:27.887Z,16.1
2018-11-05T10:01:17.680Z,16.1
2018-11-05T10:02:07.674Z,16.1
2018-11-05T10:03:01.997Z,16.1
2018-11-05T10:03:52.770Z,16.1
2018-11-05T10:04:42.640Z,16.1
2018-11-05T10:05:28.516Z,16.1
2018-11-05T10:06:16.442Z,16.1
2018-11-05T10:07:08.184Z,16.1
2018-11-05T10:07:58.800Z,16.1
2018-11-05T10:08:48.229Z,16.1
2018-11-05T10:09:39.896Z,16.1
2018-11-05T10:10:33.017Z,16.1
2018-11-05T10:11:18.461Z,16.1
2018-11-05T10:12:09.266Z,16.1
2018-11-05T10:12:58.744Z,16.1
2018-11-05T10:13:49.668Z,16.1
2018-11-05T10:14:37.671Z,16.1
2018-11-05T10:15:30.116Z,16.1
2018-11-05T10:16:18.638Z,16.1
2018-11-05T10:17:09.313Z,16.1
2018-11-05T10:17:59.578Z,16.1
2018-11-05T10:18:48.510Z,16.1
2018-11-05T10:19:39.213Z,16.1
2018-11-05T10:20:27.954Z,16.1
2018-11-05T10:21:18.492Z,16.1
2018-11-05T10:22:07.711Z,16.1
2018-11-05T10:22:58.068Z,16.1
2018-11-05T10:23:49.432Z,16.1
2018-11-05T10:24:40.238Z,16.1
2018-11-05T10:25:28.146Z,16.1
2018-11-05T10:26:19.734Z,16.1
2018-11-05T10:27:08.875Z,16.1
2018-11-05T10:27:58.797Z,16.2
2018-11-05T10:28:47.640Z,16.2
2018-11-05T10:29:39.765Z,16.1
2018-11-05T10:30:29.925Z,16.2
2018-11-05T10:31:19.122Z,16.1
2018-11-05T10:32:09.217Z,16.1
2018-11-05T10:33:00.534Z,16.2
2018-11-05T10:33:50.733Z,16.2
2018-11-05T10:34:40.322Z,16.2
2018-11-05T10:35:28.076Z,16.1
2018-11-05T10:36:19.515Z,16.2
2018-11-05T10:37:09.965Z,16.2
2018-11-05T10:37:59.064Z,16.2
2018-11-05T10:38:49.977Z,16.2
2018-11-05T10:39:39.837Z,16.2
2018-11-05T10:40:32.507Z,16.2
2018-11-05T10:41:20.620Z,16.2
2018-11-05T10:42:10.674Z,16.2
2018-11-05T10:43:00.207Z,16.2
2018-11-05T10:43:52.153Z,16.2
2018-11-05T10:44:41.057Z,16.2
2018-11-05T10:45:31.249Z,16.2
2018-11-05T10:46:23.745Z,16.2
2018-11-05T10:47:09.879Z,16.2
2018-11-05T10:48:01.230Z,16.2
2018-11-05T10:48:50.384Z,16.2
2018-11-05T10:49:41.504Z,16.2
2018-11-05T10:50:33.341Z,16.2
2018-11-05T10:51:23.948Z,16.2
2018-11-05T10:52:18.875Z,16.2
2018-11-05T10:53:01.768Z,16.2
2018-11-05T10:53:51.963Z,16.2
2018-11-05T10:54:42.452Z,16.2
2018-11-05T10:55:32.221Z,16.2
2018-11-05T10:56:21.012Z,16.2
2018-11-05T10:57:13.214Z,16.2
2018-11-05T10:58:03.794Z,16.2
2018-11-05T10:58:51.951Z,16.2
2018-11-05T10:59:42.986Z,16.2
2018-11-05T11:00:31.414Z,16.2
2018-11-05T11:01:21.838Z,16.2
2018-11-05T11:02:12.328Z,16.2
2018-11-05T11:03:02.718Z,16.2
2018-11-05T11:03:53.381Z,16.3
2018-11-05T11:04:41.633Z,16.3
2018-11-05T11:05:31.882Z,16.2
2018-11-05T11:06:22.722Z,16.3
2018-11-05T11:07:13.003Z,16.3
2018-11-05T11:08:01.328Z,16.3
2018-11-05T11:08:53.163Z,16.3
2018-11-05T11:09:43.457Z,16.3
2018-11-05T11:10:32.437Z,16.3
2018-11-05T11:11:21.525Z,16.3
2018-11-05T11:12:13.021Z,16.3
2018-11-05T11:13:02.423Z,16.3
2018-11-05T11:13:52.568Z,16.3
2018-11-05T11:14:43.767Z,16.3
2018-11-05T11:15:34.045Z,16.3
2018-11-05T11:16:22.799Z,16.3
2018-11-05T11:17:13.277Z,16.3
2018-11-05T11:18:02.630Z,16.3
2018-11-05T11:18:53.002Z,16.3
2018-11-05T11:19:42.088Z,16.3
2018-11-05T11:20:33.232Z,16.3
2018-11-05T11:21:24.296Z,16.3
2018-11-05T11:22:14.628Z,16.3
2018-11-05T11:23:02.377Z,16.3
2018-11-05T11:23:53.857Z,16.3
2018-11-05T11:24:43.606Z,16.3
2018-11-05T11:25:33.499Z,16.3
2018-11-05T11:26:23.181Z,16.3
2018-11-05T11:27:12.419Z,16.3
2018-11-05T11:28:09.477Z,16.3
2018-11-05T11:28:56.028Z,16.3
2018-11-05T11:29:44.693Z,16.3
2018-11-05T11:30:34.965Z,16.3
2018-11-05T11:31:24.159Z,16.3
2018-11-05T11:32:13.973Z,16.3
2018-11-05T11:33:03.217Z,16.3
2018-11-05T11:33:54.342Z,16.3
2018-11-05T11:34:44.020Z,16.3
2018-11-05T11:35:33.628Z,16.3
2018-11-05T11:36:25.613Z,16.3
2018-11-05T11:37:15.299Z,16.3
2018-11-05T11:38:03.646Z,16.3
2018-11-05T11:38:55.234Z,16.3
2018-11-05T11:39:45.127Z,16.3
2018-11-05T11:40:35.501Z,16.3
2018-11-05T11:41:25.506Z,16.3
2018-11-05T11:42:15.002Z,16.3
2018-11-05T11:43:04.618Z,16.3
2018-11-05T11:43:55.358Z,16.3
2018-11-05T11:44:46.275Z,16.3
2018-11-05T11:45:34.658Z,16.3
2018-11-05T11:46:25.279Z,16.3
2018-11-05T11:47:15.413Z,16.3
2018-11-05T11:48:05.363Z,16.3
2018-11-05T11:48:56.288Z,16.3
2018-11-05T11:49:45.505Z,16.3
2018-11-05T11:50:36.165Z,16.3
2018-11-05T11:51:26.261Z,16.3
2018-11-05T11:52:15.648Z,16.3
2018-11-05T11:53:07.259Z,16.3
2018-11-05T11:53:56.250Z,16.3
2018-11-05T11:54:46.215Z,16.3
2018-11-05T11:55:36.432Z,16.3
2018-11-05T11:56:25.869Z,16.3
2018-11-05T11:57:16.112Z,16.4
2018-11-05T11:58:06.443Z,16.3
2018-11-05T11:58:56.807Z,16.3
2018-11-05T11:59:46.879Z,16.3
2018-11-05T12:00:36.290Z,16.3
2018-11-05T12:01:26.549Z,16.4
2018-11-05T12:02:17.677Z,16.4
2018-11-05T12:03:06.332Z,16.3
2018-11-05T12:03:56.689Z,16.3
2018-11-05T12:04:46.480Z,16.4
2018-11-05T12:05:37.302Z,16.3
2018-11-05T12:06:27.638Z,16.4
2018-11-05T12:07:15.999Z,16.4
2018-11-05T12:08:06.944Z,16.4
2018-11-05T12:08:56.633Z,16.4
2018-11-05T12:09:47.799Z,16.4